createdAt,value
2019-02-23T00:00:12.584Z,3.03
2019-02-23T00:02:40.849Z,2.20
2019-02-23T00:05:09.498Z,4.77
2019-02-23T00:07:38.065Z,5.03
2019-02-23T00:10:08.080Z,4.30
2019-02-23T00:12:36.709Z,4.53
2019-02-23T00:15:06.695Z,4.53
2019-02-23T00:17:35.261Z,6.73
2019-02-23T00:20:05.702Z,5.07
2019-02-23T00:22:34.267Z,5.20
2019-02-23T00:25:02.898Z,3.60
2019-02-23T00:27:31.534Z,5.30
2019-02-23T00:30:00.305Z,3.07
2019-02-23T00:32:28.880Z,3.67
2019-02-23T00:34:57.470Z,6.37
2019-02-23T00:37:26.054Z,4.60
2019-02-23T00:39:54.646Z,7.07
2019-02-23T00:42:23.230Z,8.70
2019-02-23T00:44:51.858Z,5.33
2019-02-23T00:47:20.424Z,4.90
2019-02-23T00:49:49.004Z,5.33
2019-02-23T00:52:17.638Z,3.57
2019-02-23T00:54:46.213Z,8.07
2019-02-23T00:57:14.783Z,9.37
2019-02-23T00:59:43.490Z,6.03
2019-02-23T01:02:12.227Z,4.03
2019-02-23T01:04:40.884Z,5.83
2019-02-23T01:07:09.598Z,6.53
2019-02-23T01:09:38.234Z,3.27
2019-02-23T01:12:06.882Z,9.20
2019-02-23T01:14:35.517Z,8.47
2019-02-23T01:17:04.229Z,10.90
2019-02-23T01:19:32.882Z,8.37
2019-02-23T01:22:01.526Z,8.80
2019-02-23T01:24:30.098Z,8.00
2019-02-23T01:26:58.782Z,10.00
2019-02-23T01:29:27.442Z,9.43
2019-02-23T01:31:56.006Z,7.87
2019-02-23T01:34:24.587Z,4.40
2019-02-23T01:36:53.221Z,7.77
2019-02-23T01:39:21.794Z,4.87
2019-02-23T01:41:50.362Z,10.17
2019-02-23T01:44:18.956Z,7.90
2019-02-23T01:46:47.574Z,6.80
2019-02-23T01:49:16.150Z,6.50
2019-02-23T01:51:44.785Z,9.93
2019-02-23T01:54:13.877Z,11.00
2019-02-23T01:56:42.438Z,8.67
2019-02-23T01:59:11.010Z,12.90
2019-02-23T02:01:40.426Z,11.40
2019-02-23T02:04:09.134Z,10.80
2019-02-23T02:06:37.838Z,10.03
2019-02-23T02:09:06.758Z,12.73
2019-02-23T02:11:35.399Z,7.73
2019-02-23T02:14:04.027Z,6.37
2019-02-23T02:16:32.866Z,6.20
2019-02-23T02:19:01.434Z,10.37
2019-02-23T02:21:30.008Z,11.07
2019-02-23T02:23:58.581Z,8.23
2019-02-23T02:26:27.151Z,8.00
2019-02-23T02:28:55.734Z,6.07
2019-02-23T02:31:24.371Z,9.30
2019-02-23T02:34:10.080Z,7.53
2019-02-23T02:36:38.709Z,8.63
2019-02-23T02:39:13.918Z,5.93
2019-02-23T02:41:42.537Z,8.20
2019-02-23T02:44:11.229Z,6.83
2019-02-23T02:46:39.820Z,5.87
2019-02-23T02:49:08.526Z,15.57
2019-02-23T02:51:37.089Z,8.97
2019-02-23T02:54:05.726Z,7.93
2019-02-23T02:56:34.381Z,8.47
2019-02-23T02:59:03.088Z,5.87
2019-02-23T03:01:31.667Z,10.80
2019-02-23T03:04:00.240Z,19.23
2019-02-23T03:06:29.026Z,6.37
2019-02-23T03:08:57.698Z,9.97
2019-02-23T03:11:26.273Z,17.00
2019-02-23T03:13:54.907Z,9.77
2019-02-23T03:16:23.479Z,10.37
2019-02-23T03:18:52.054Z,8.90
2019-02-23T03:21:20.622Z,7.63
2019-02-23T03:23:49.200Z,7.70
2019-02-23T03:26:17.762Z,7.57
2019-02-23T03:28:46.393Z,8.23
2019-02-23T03:31:14.966Z,10.17
2019-02-23T03:33:43.531Z,7.77
2019-02-23T03:36:12.107Z,11.90
2019-02-23T03:38:40.674Z,7.83
2019-02-23T03:41:09.323Z,8.80
2019-02-23T03:43:38.225Z,18.53
2019-02-23T03:46:06.874Z,14.57
2019-02-23T03:48:35.514Z,7.03
2019-02-23T03:51:04.241Z,10.83
2019-02-23T03:53:32.946Z,9.10
2019-02-23T03:56:01.678Z,8.67
2019-02-23T03:58:30.266Z,12.30
2019-02-23T04:00:58.836Z,9.47
2019-02-23T04:03:27.483Z,8.90
2019-02-23T04:05:56.050Z,8.30
2019-02-23T04:08:24.622Z,9.67
2019-02-23T04:10:53.231Z,11.07
2019-02-23T04:13:21.903Z,8.00
2019-02-23T04:15:50.473Z,11.17
2019-02-23T04:18:19.093Z,8.90
2019-02-23T04:20:47.671Z,10.33
2019-02-23T04:23:16.311Z,12.07
2019-02-23T04:25:44.886Z,9.67
2019-02-23T04:28:13.458Z,12.27
2019-02-23T04:30:42.047Z,14.63
2019-02-23T04:33:10.630Z,15.83
2019-02-23T04:35:39.213Z,11.30
2019-02-23T04:38:07.775Z,9.80
2019-02-23T04:40:36.345Z,11.33
2019-02-23T04:43:05.001Z,10.43
2019-02-23T04:45:33.574Z,14.90
2019-02-23T04:48:02.190Z,13.90
2019-02-23T04:50:30.759Z,13.73
2019-02-23T04:52:59.339Z,16.57
2019-02-23T04:55:27.980Z,14.33
2019-02-23T04:57:56.570Z,15.33
2019-02-23T05:00:25.142Z,11.90
2019-02-23T05:02:53.727Z,16.00
2019-02-23T05:05:22.307Z,16.07
2019-02-23T05:07:50.879Z,12.63
2019-02-23T05:10:19.498Z,15.13
2019-02-23T05:12:48.059Z,16.30
2019-02-23T05:15:16.654Z,18.63
2019-02-23T05:17:45.219Z,15.10
2019-02-23T05:20:13.866Z,17.20
2019-02-23T05:22:42.438Z,21.17
2019-02-23T05:25:11.223Z,19.27
2019-02-23T05:27:39.793Z,15.50
2019-02-23T05:30:11.102Z,20.17
2019-02-23T05:32:39.683Z,16.27
2019-02-23T05:35:10.898Z,16.30
2019-02-23T05:37:39.538Z,18.90
2019-02-23T05:40:10.813Z,16.93
2019-02-23T05:42:39.418Z,13.23
2019-02-23T05:45:10.055Z,16.93
2019-02-23T05:47:38.794Z,17.63
2019-02-23T05:50:10.442Z,16.90
2019-02-23T05:52:39.127Z,18.27
2019-02-23T05:55:07.898Z,18.87
2019-02-23T05:57:36.541Z,21.63
2019-02-23T06:00:11.171Z,16.00
2019-02-23T06:02:39.748Z,27.67
2019-02-23T06:05:08.458Z,22.80
2019-02-23T06:07:37.030Z,25.37
2019-02-23T06:10:08.442Z,24.77
2019-02-23T06:12:37.017Z,23.17
2019-02-23T06:15:08.918Z,25.70
2019-02-23T06:17:37.486Z,21.10
2019-02-23T06:20:07.854Z,19.87
2019-02-23T06:22:36.370Z,17.70
2019-02-23T06:25:06.984Z,18.17
2019-02-23T06:27:35.563Z,24.10
2019-02-23T06:30:06.138Z,12.87
2019-02-23T06:32:34.714Z,22.83
2019-02-23T06:35:03.294Z,20.37
2019-02-23T06:37:32.018Z,20.03
2019-02-23T06:40:00.597Z,19.23
2019-02-23T06:42:29.162Z,17.80
2019-02-23T06:44:57.746Z,18.67
2019-02-23T06:47:26.342Z,17.17
2019-02-23T06:49:54.998Z,15.60
2019-02-23T06:52:23.630Z,18.87
2019-02-23T06:54:52.210Z,19.33
2019-02-23T06:57:20.779Z,16.73
2019-02-23T06:59:49.361Z,17.33
2019-02-23T07:02:17.937Z,18.07
2019-02-23T07:04:46.515Z,18.97
2019-02-23T07:07:15.387Z,17.50
2019-02-23T07:09:43.954Z,16.93
2019-02-23T07:12:12.539Z,20.40
2019-02-23T07:14:41.178Z,15.17
2019-02-23T07:17:09.830Z,14.27
2019-02-23T07:19:38.466Z,16.53
2019-02-23T07:22:15.151Z,16.23
2019-02-23T07:24:37.268Z,16.63
2019-02-23T07:27:05.854Z,14.97
2019-02-23T07:29:34.526Z,13.53
2019-02-23T07:32:03.094Z,16.77
2019-02-23T07:34:31.677Z,15.37
2019-02-23T07:37:00.362Z,19.63
2019-02-23T07:39:28.942Z,15.70
2019-02-23T07:41:57.510Z,21.23
2019-02-23T07:44:26.101Z,17.80
2019-02-23T07:46:54.673Z,13.37
2019-02-23T07:49:23.266Z,14.83
2019-02-23T07:51:51.858Z,13.10
2019-02-23T07:54:20.446Z,14.03
2019-02-23T07:56:49.031Z,12.83
2019-02-23T07:59:17.661Z,18.23
2019-02-23T08:01:46.257Z,15.17
2019-02-23T08:04:14.810Z,14.30
2019-02-23T08:06:43.390Z,15.93
2019-02-23T08:09:12.397Z,17.33
2019-02-23T08:11:40.978Z,13.63
2019-02-23T08:14:09.551Z,15.60
2019-02-23T08:16:38.326Z,16.73
2019-02-23T08:19:06.966Z,17.07
2019-02-23T08:21:35.539Z,23.43
2019-02-23T08:24:04.191Z,17.30
2019-02-23T08:26:32.758Z,17.77
2019-02-23T08:29:01.339Z,15.20
2019-02-23T08:31:29.979Z,13.80
2019-02-23T08:33:58.553Z,16.43
2019-02-23T08:36:27.197Z,12.77
2019-02-23T08:38:55.766Z,12.13
2019-02-23T08:41:24.348Z,13.27
2019-02-23T08:43:52.916Z,18.33
2019-02-23T08:46:21.500Z,13.27
2019-02-23T08:48:50.067Z,11.93
2019-02-23T08:51:18.714Z,10.13
2019-02-23T08:53:47.287Z,15.70
2019-02-23T08:56:15.894Z,14.73
2019-02-23T08:58:44.465Z,12.20
2019-02-23T09:01:13.090Z,13.63
2019-02-23T09:03:41.677Z,13.77
2019-02-23T09:06:10.246Z,16.97
2019-02-23T09:08:38.826Z,19.23
2019-02-23T09:11:07.394Z,9.53
2019-02-23T09:13:36.001Z,15.63
2019-02-23T09:16:04.570Z,11.97
2019-02-23T09:18:33.154Z,15.40
2019-02-23T09:21:01.728Z,15.83
2019-02-23T09:23:30.301Z,12.53
2019-02-23T09:25:59.030Z,12.73
2019-02-23T09:28:27.606Z,17.27
2019-02-23T09:30:56.187Z,10.93
2019-02-23T09:33:24.755Z,11.60
2019-02-23T09:35:53.329Z,14.10
2019-02-23T09:38:22.047Z,14.40
2019-02-23T09:40:50.642Z,15.13
2019-02-23T09:43:20.751Z,13.80
2019-02-23T09:45:49.558Z,7.33
2019-02-23T09:48:18.126Z,10.67
2019-02-23T09:50:46.702Z,14.30
2019-02-23T09:53:15.270Z,16.47
2019-02-23T09:55:43.918Z,12.97
2019-02-23T09:58:12.553Z,18.27
2019-02-23T10:00:41.122Z,18.03
2019-02-23T10:03:09.702Z,16.53
2019-02-23T10:05:38.403Z,12.83
2019-02-23T10:08:07.074Z,13.70
2019-02-23T10:10:35.658Z,10.87
2019-02-23T10:13:04.289Z,11.00
2019-02-23T10:15:33.030Z,11.77
2019-02-23T10:18:01.691Z,10.67
2019-02-23T10:20:30.312Z,13.37
2019-02-23T10:22:59.070Z,15.87
2019-02-23T10:25:27.722Z,14.87
2019-02-23T10:27:56.294Z,11.33
2019-02-23T10:30:25.178Z,15.63
2019-02-23T10:32:53.742Z,13.57
2019-02-23T10:35:22.316Z,13.67
2019-02-23T10:37:50.962Z,17.53
2019-02-23T10:40:19.702Z,14.30
2019-02-23T10:42:48.304Z,11.87
2019-02-23T10:45:16.877Z,13.10
2019-02-23T10:47:45.454Z,9.73
2019-02-23T10:50:15.566Z,18.27
2019-02-23T10:52:44.191Z,17.47
2019-02-23T10:55:14.199Z,14.70
2019-02-23T10:57:42.841Z,13.00
2019-02-23T11:00:18.698Z,14.57
2019-02-23T11:02:47.438Z,18.37
2019-02-23T11:05:17.429Z,16.93
2019-02-23T11:07:46.165Z,15.23
2019-02-23T11:10:15.362Z,18.00
2019-02-23T11:12:44.074Z,15.33
2019-02-23T11:15:14.451Z,17.53
2019-02-23T11:17:43.150Z,14.47
2019-02-23T11:20:12.202Z,15.63
2019-02-23T11:22:40.954Z,12.17
2019-02-23T11:25:11.358Z,15.47
2019-02-23T11:27:40.178Z,18.13
2019-02-23T11:30:13.478Z,14.27
2019-02-23T11:32:42.054Z,14.67
2019-02-23T11:35:12.562Z,14.73
2019-02-23T11:37:41.209Z,11.77
2019-02-23T11:40:14.790Z,13.00
2019-02-23T11:42:43.672Z,14.83
2019-02-23T11:45:12.581Z,15.40
2019-02-23T11:47:41.166Z,17.53
2019-02-23T11:50:13.483Z,17.20
2019-02-23T11:52:42.050Z,21.73
2019-02-23T11:55:10.882Z,18.03
2019-02-23T11:57:39.445Z,15.53
2019-02-23T12:00:10.368Z,16.93
2019-02-23T12:02:38.938Z,14.70
2019-02-23T12:05:08.858Z,18.67
2019-02-23T12:07:37.494Z,19.13
2019-02-23T12:10:14.974Z,15.80
2019-02-23T12:12:43.611Z,19.73
2019-02-23T12:15:12.518Z,23.93
2019-02-23T12:17:41.102Z,17.80
2019-02-23T12:20:11.009Z,23.70
2019-02-23T12:22:39.586Z,14.73
2019-02-23T12:25:08.725Z,17.57
2019-02-23T12:27:37.278Z,19.00
2019-02-23T12:30:08.186Z,17.17
2019-02-23T12:32:36.878Z,20.57
2019-02-23T12:35:08.192Z,14.50
2019-02-23T12:37:36.918Z,18.30
2019-02-23T12:40:06.430Z,20.27
2019-02-23T12:42:34.999Z,17.37
2019-02-23T12:45:04.114Z,18.83
2019-02-23T12:47:32.774Z,17.50
2019-02-23T12:50:01.365Z,16.00
2019-02-23T12:52:29.955Z,20.20
2019-02-23T12:54:58.614Z,17.47
2019-02-23T12:57:27.181Z,15.97
2019-02-23T12:59:55.817Z,26.20
2019-02-23T13:02:24.397Z,26.10
2019-02-23T13:04:52.967Z,20.10
2019-02-23T13:07:21.550Z,19.60
2019-02-23T13:09:50.254Z,24.67
2019-02-23T13:12:22.074Z,18.13
2019-02-23T13:15:11.674Z,23.33
2019-02-23T13:17:55.374Z,23.50
2019-02-23T13:20:49.407Z,21.83
2019-02-23T13:23:32.886Z,18.73
2019-02-23T13:26:13.554Z,19.80
2019-02-23T13:28:50.083Z,18.30
2019-02-23T13:31:24.319Z,20.03
2019-02-23T13:34:00.109Z,20.27
2019-02-23T13:36:47.178Z,20.93
2019-02-23T13:39:35.214Z,22.00
2019-02-23T13:42:12.809Z,22.07
2019-02-23T13:45:16.161Z,22.13
2019-02-23T13:47:50.822Z,22.73
2019-02-23T13:50:25.175Z,28.13
2019-02-23T13:53:20.546Z,23.60
2019-02-23T13:56:20.864Z,25.67
2019-02-23T13:59:04.380Z,19.83
2019-02-23T14:01:41.638Z,23.67
2019-02-23T14:04:38.810Z,22.37
2019-02-23T14:07:10.454Z,28.63
2019-02-23T14:09:44.854Z,27.73
2019-02-23T14:12:31.759Z,21.70
2019-02-23T14:15:22.970Z,25.87
2019-02-23T14:17:54.628Z,25.47
2019-02-23T14:20:26.386Z,24.83
2019-02-23T14:23:03.683Z,24.17
2019-02-23T14:25:38.018Z,22.13
2019-02-23T14:28:15.193Z,25.37
2019-02-23T14:31:09.573Z,24.93
2019-02-23T14:33:47.206Z,20.33
2019-02-23T14:36:36.050Z,30.73
2019-02-23T14:39:24.206Z,27.80
2019-02-23T14:42:11.473Z,27.10
2019-02-23T14:45:18.141Z,23.10
2019-02-23T14:48:17.448Z,29.33
2019-02-23T14:50:51.749Z,19.63
2019-02-23T14:53:26.202Z,19.73
2019-02-23T14:56:09.759Z,22.07
2019-02-23T14:58:44.356Z,21.33
2019-02-23T15:01:33.570Z,25.37
2019-02-23T15:04:11.535Z,26.73
2019-02-23T15:06:48.990Z,23.93
2019-02-23T15:09:29.526Z,29.50
2019-02-23T15:12:16.245Z,22.97
2019-02-23T15:14:56.693Z,25.80
2019-02-23T15:17:45.061Z,25.70
2019-02-23T15:20:37.922Z,29.67
2019-02-23T15:23:15.458Z,24.00
2019-02-23T15:25:52.895Z,25.93
2019-02-23T15:28:36.045Z,21.90
2019-02-23T15:31:03.455Z,25.37
2019-02-23T15:33:49.826Z,24.43
2019-02-23T15:36:24.370Z,27.37
2019-02-23T15:38:58.990Z,26.33
2019-02-23T15:41:39.931Z,28.53
2019-02-23T15:44:23.608Z,24.63
2019-02-23T15:46:55.488Z,23.80
2019-02-23T15:49:31.155Z,26.63
2019-02-23T15:52:00.993Z,32.63
2019-02-23T15:54:29.686Z,28.93
2019-02-23T15:56:58.270Z,33.17
2019-02-23T15:59:27.011Z,24.27
2019-02-23T16:01:55.582Z,26.20
2019-02-23T16:04:24.169Z,31.83
2019-02-23T16:06:52.825Z,29.03
2019-02-23T16:09:21.762Z,31.17
2019-02-23T16:11:50.398Z,36.63
2019-02-23T16:14:19.125Z,35.37
2019-02-23T16:16:47.848Z,29.80
2019-02-23T16:19:16.493Z,34.97
2019-02-23T16:21:45.225Z,37.53
2019-02-23T16:24:13.913Z,38.03
2019-02-23T16:26:42.828Z,30.73
2019-02-23T16:29:11.438Z,31.73
2019-02-23T16:31:42.078Z,30.43
2019-02-23T16:34:10.712Z,34.47
2019-02-23T16:36:39.521Z,36.07
2019-02-23T16:39:10.353Z,30.03
2019-02-23T16:41:39.000Z,29.47
2019-02-23T16:44:07.575Z,32.23
2019-02-23T16:46:36.318Z,35.63
2019-02-23T16:49:05.297Z,38.63
2019-02-23T16:51:34.074Z,37.17
2019-02-23T16:54:03.614Z,33.83
2019-02-23T16:56:32.190Z,38.23
2019-02-23T16:59:00.839Z,34.30
2019-02-23T17:01:29.606Z,40.00
2019-02-23T17:03:59.619Z,31.33
2019-02-23T17:06:28.127Z,34.23
2019-02-23T17:08:56.760Z,35.03
2019-02-23T17:11:25.410Z,38.57
2019-02-23T17:13:53.981Z,36.53
2019-02-23T17:16:22.650Z,41.90
2019-02-23T17:18:51.239Z,32.33
2019-02-23T17:21:19.822Z,40.00
2019-02-23T17:23:48.391Z,41.13
2019-02-23T17:26:17.111Z,39.03
2019-02-23T17:28:45.678Z,38.00
2019-02-23T17:31:14.388Z,34.83
2019-02-23T17:33:42.945Z,40.13
2019-02-23T17:36:11.529Z,34.53
2019-02-23T17:38:40.116Z,39.87
2019-02-23T17:41:08.680Z,44.90
2019-02-23T17:43:40.116Z,42.60
2019-02-23T17:46:07.578Z,41.63
2019-02-23T17:48:36.196Z,47.00
2019-02-23T17:51:04.827Z,39.10
2019-02-23T17:53:33.398Z,41.93
2019-02-23T17:56:01.986Z,37.57
2019-02-23T17:58:31.327Z,44.40
2019-02-23T18:00:59.963Z,37.27
2019-02-23T18:03:28.542Z,39.27
2019-02-23T18:05:57.129Z,35.37
2019-02-23T18:08:25.701Z,36.13
2019-02-23T18:10:54.566Z,42.27
2019-02-23T18:13:23.222Z,49.73
2019-02-23T18:15:51.798Z,53.67
2019-02-23T18:18:20.377Z,45.90
2019-02-23T18:20:48.965Z,48.83
2019-02-23T18:23:17.545Z,56.20
2019-02-23T18:25:46.190Z,64.03
2019-02-23T18:28:14.791Z,48.70
2019-02-23T18:30:43.450Z,52.60
2019-02-23T18:33:12.034Z,38.03
2019-02-23T18:35:40.671Z,34.13
2019-02-23T18:38:09.246Z,47.90
2019-02-23T18:40:37.835Z,46.97
2019-02-23T18:43:06.552Z,60.53
2019-02-23T18:45:35.134Z,80.80
2019-02-23T18:48:03.702Z,91.90
2019-02-23T18:50:32.430Z,100.27
2019-02-23T18:53:01.161Z,174.67
2019-02-23T18:55:29.738Z,89.10
2019-02-23T18:57:58.386Z,121.67
2019-02-23T19:00:26.966Z,91.40
2019-02-23T19:02:55.551Z,60.67
2019-02-23T19:05:24.118Z,53.17
2019-02-23T19:07:52.714Z,51.23
2019-02-23T19:10:21.274Z,47.27
2019-02-23T19:12:49.854Z,35.23
2019-02-23T19:15:18.495Z,50.10
2019-02-23T19:17:47.078Z,41.43
2019-02-23T19:20:15.790Z,46.30
2019-02-23T19:22:44.562Z,42.30
2019-02-23T19:25:13.198Z,40.43
2019-02-23T19:27:41.838Z,39.57
2019-02-23T19:30:13.127Z,41.50
2019-02-23T19:32:41.852Z,36.90
2019-02-23T19:35:10.670Z,42.57
2019-02-23T19:37:39.245Z,38.23
2019-02-23T19:40:09.269Z,46.40
2019-02-23T19:42:37.940Z,44.53
2019-02-23T19:45:30.035Z,38.70
2019-02-23T19:47:58.674Z,38.20
2019-02-23T19:50:33.066Z,38.13
2019-02-23T19:53:01.640Z,34.83
2019-02-23T19:55:32.249Z,42.87
2019-02-23T19:58:00.762Z,41.23
2019-02-23T20:00:29.578Z,41.00
2019-02-23T20:02:58.172Z,45.20
2019-02-23T20:05:26.730Z,36.87
2019-02-23T20:07:55.379Z,40.07
2019-02-23T20:10:24.046Z,41.13
2019-02-23T20:12:52.858Z,36.47
2019-02-23T20:15:21.447Z,34.10
2019-02-23T20:17:49.990Z,42.93
2019-02-23T20:20:18.662Z,41.47
2019-02-23T20:22:47.293Z,39.73
2019-02-23T20:25:15.878Z,36.53
2019-02-23T20:27:44.454Z,43.83
2019-02-23T20:30:13.426Z,40.80
2019-02-23T20:32:41.997Z,40.47
2019-02-23T20:35:10.786Z,39.23
2019-02-23T20:37:39.522Z,43.43
2019-02-23T20:40:09.162Z,44.17
2019-02-23T20:42:37.819Z,40.23
2019-02-23T20:45:08.426Z,38.20
2019-02-23T20:47:37.151Z,38.23
2019-02-23T20:50:08.630Z,36.27
2019-02-23T20:52:37.214Z,39.30
2019-02-23T20:55:07.835Z,47.00
2019-02-23T20:57:36.501Z,37.63
2019-02-23T21:00:10.713Z,35.63
2019-02-23T21:02:39.662Z,37.27
2019-02-23T21:05:12.907Z,37.70
2019-02-23T21:07:41.530Z,39.37
2019-02-23T21:10:10.373Z,32.83
2019-02-23T21:12:39.018Z,38.60
2019-02-23T21:15:11.522Z,38.13
2019-02-23T21:17:40.097Z,33.43
2019-02-23T21:20:10.161Z,34.10
2019-02-23T21:22:39.635Z,39.20
2019-02-23T21:25:09.320Z,35.77
2019-02-23T21:27:37.890Z,35.97
2019-02-23T21:30:10.967Z,37.73
2019-02-23T21:32:39.610Z,43.80
2019-02-23T21:35:08.822Z,36.37
2019-02-23T21:37:37.473Z,33.10
2019-02-23T21:40:12.081Z,39.67
2019-02-23T21:42:40.614Z,38.00
2019-02-23T21:45:10.029Z,36.20
2019-02-23T21:47:38.671Z,36.13
2019-02-23T21:50:09.546Z,36.07
2019-02-23T21:52:38.317Z,33.60
2019-02-23T21:55:07.154Z,40.88
2019-02-23T21:57:35.795Z,35.70
2019-02-23T22:00:06.922Z,35.57
2019-02-23T22:02:35.646Z,35.83
2019-02-23T22:05:11.978Z,37.10
2019-02-23T22:07:35.488Z,34.23
2019-02-23T22:10:06.460Z,35.37
2019-02-23T22:12:34.984Z,32.00
2019-02-23T22:15:04.104Z,33.97
2019-02-23T22:17:32.673Z,34.57
2019-02-23T22:20:01.333Z,31.10
2019-02-23T22:22:29.986Z,35.03
2019-02-23T22:24:58.550Z,29.50
2019-02-23T22:27:31.338Z,42.37
2019-02-23T22:29:57.442Z,31.73
2019-02-23T22:32:26.114Z,32.20
2019-02-23T22:34:54.682Z,33.27
2019-02-23T22:37:23.293Z,35.47
2019-02-23T22:39:51.922Z,34.27
2019-02-23T22:42:20.592Z,36.27
2019-02-23T22:44:49.153Z,31.87
2019-02-23T22:47:17.731Z,36.23
2019-02-23T22:49:46.310Z,34.47
2019-02-23T22:52:15.199Z,36.77
2019-02-23T22:54:43.822Z,36.17
2019-02-23T22:57:12.490Z,39.40
2019-02-23T22:59:41.103Z,34.10
2019-02-23T23:02:09.897Z,32.67
2019-02-23T23:04:38.459Z,34.53
2019-02-23T23:07:07.170Z,31.97
2019-02-23T23:09:35.833Z,32.97
2019-02-23T23:12:04.482Z,31.37
2019-02-23T23:14:33.054Z,33.40
2019-02-23T23:17:01.641Z,34.30
2019-02-23T23:19:30.214Z,30.93
2019-02-23T23:21:58.799Z,34.83
2019-02-23T23:24:27.434Z,34.23
2019-02-23T23:26:56.026Z,32.10
2019-02-23T23:29:24.606Z,32.97
2019-02-23T23:31:53.249Z,31.00
2019-02-23T23:34:21.902Z,38.43
2019-02-23T23:36:50.508Z,33.23
2019-02-23T23:39:19.130Z,30.47
2019-02-23T23:41:47.785Z,35.90
2019-02-23T23:44:16.362Z,32.73
2019-02-23T23:46:45.175Z,32.50
2019-02-23T23:49:13.766Z,34.47
2019-02-23T23:51:42.418Z,33.00
2019-02-23T23:54:10.990Z,29.10
2019-02-23T23:56:39.579Z,32.27
2019-02-23T23:59:08.222Z,29.37
